Hayti Heights, Missouri
Current Conditions -  °F | °C
As of 9:53 PM on Saturday 20 Dec 2014 (Local Time) from KHKA Reporting Station
Clear Clear  
Wind Chill: 28°   Ceiling: Unl
Heat Index: 34°   Visibility: 8mi
Dew Point: 31°   Wind: 7mph
Humidity: 89%   Direction: 50°NE
Pressure: 30.28"   Gusts: NA
Location:  36.2659°N, 89.7083°W
Report Text: KHKA 210353Z AUTO 05006KT 8SM CLR 01/M01 A3028 RMK AO2 SLP253 T00111006
Loading
Personal Weather Stations






























Interactive Weather Map New forecast layout! Learn more

10-Day Weather Forecast

Advertisements
Track Severe Weather on mobile